Terminal Aerodrome Forecast
Issued by NWS

Home | Current Version | Previous Version | Graphics & Text | Print | Product List | Glossary On
Versions: 1 2 3 4 5 6 7 8 9 10 11 12 13 14 15 16 17 18
000
FTUS43 KICT 011027 AAA
TAFSLN
TAF AMD
KSLN 011027Z 0110/0206 VRB03KT P6SM OVC030
      TEMPO 0110/0114 5SM -SN BR OVC012
     FM011500 35006KT P6SM SCT020 BKN130
     FM012300 05004KT P6SM BKN130=

USA.gov is the U.S. government's official web portal to all federal, state and local government web resources and services.